sensor_id;sensor_type;location;lat;lon;timestamp;P1;durP1;ratioP1;P2;durP2;ratioP2
66546;SDS011;53400;50.364;14.874;2023-06-14T00:01:02;8.52;;;5.47;;
66546;SDS011;53400;50.364;14.874;2023-06-14T00:03:42;8.63;;;5.10;;
66546;SDS011;53400;50.364;14.874;2023-06-14T00:06:08;7.80;;;5.20;;
66546;SDS011;53400;50.364;14.874;2023-06-14T00:08:35;8.68;;;5.70;;
66546;SDS011;53400;50.364;14.874;2023-06-14T00:11:03;7.82;;;5.88;;
66546;SDS011;53400;50.364;14.874;2023-06-14T00:13:29;9.02;;;5.63;;
66546;SDS011;53400;50.364;14.874;2023-06-14T00:15:55;9.23;;;5.63;;
66546;SDS011;53400;50.364;14.874;2023-06-14T00:18:22;7.55;;;5.28;;
66546;SDS011;53400;50.364;14.874;2023-06-14T00:20:49;7.72;;;5.80;;
66546;SDS011;53400;50.364;14.874;2023-06-14T00:23:17;7.78;;;5.35;;
66546;SDS011;53400;50.364;14.874;2023-06-14T00:25:44;7.88;;;5.53;;
66546;SDS011;53400;50.364;14.874;2023-06-14T00:28:12;8.65;;;5.63;;
66546;SDS011;53400;50.364;14.874;2023-06-14T00:30:38;8.82;;;5.95;;
66546;SDS011;53400;50.364;14.874;2023-06-14T00:33:05;9.05;;;6.03;;
66546;SDS011;53400;50.364;14.874;2023-06-14T00:35:31;7.93;;;5.43;;
66546;SDS011;53400;50.364;14.874;2023-06-14T00:37:57;8.23;;;5.80;;
66546;SDS011;53400;50.364;14.874;2023-06-14T00:40:24;9.30;;;6.18;;
66546;SDS011;53400;50.364;14.874;2023-06-14T00:42:51;9.70;;;6.07;;
66546;SDS011;53400;50.364;14.874;2023-06-14T00:45:19;8.25;;;6.05;;
66546;SDS011;53400;50.364;14.874;2023-06-14T00:47:45;10.50;;;5.78;;
66546;SDS011;53400;50.364;14.874;2023-06-14T00:50:11;8.60;;;6.10;;
66546;SDS011;53400;50.364;14.874;2023-06-14T00:52:40;10.13;;;6.55;;
66546;SDS011;53400;50.364;14.874;2023-06-14T00:55:07;10.00;;;6.05;;
66546;SDS011;53400;50.364;14.874;2023-06-14T00:57:34;8.23;;;5.85;;
66546;SDS011;53400;50.364;14.874;2023-06-14T01:00:03;10.18;;;6.72;;
66546;SDS011;53400;50.364;14.874;2023-06-14T01:02:36;9.00;;;6.57;;
66546;SDS011;53400;50.364;14.874;2023-06-14T01:05:03;8.75;;;6.43;;
66546;SDS011;53400;50.364;14.874;2023-06-14T01:07:34;9.57;;;6.15;;
66546;SDS011;53400;50.364;14.874;2023-06-14T01:10:17;10.10;;;6.60;;
66546;SDS011;53400;50.364;14.874;2023-06-14T01:12:54;9.30;;;6.43;;
66546;SDS011;53400;50.364;14.874;2023-06-14T01:15:25;9.43;;;6.75;;
66546;SDS011;53400;50.364;14.874;2023-06-14T01:17:55;8.43;;;6.05;;
66546;SDS011;53400;50.364;14.874;2023-06-14T01:20:27;9.45;;;6.57;;
66546;SDS011;53400;50.364;14.874;2023-06-14T01:22:56;9.35;;;6.18;;
66546;SDS011;53400;50.364;14.874;2023-06-14T01:25:23;9.90;;;6.45;;
66546;SDS011;53400;50.364;14.874;2023-06-14T01:27:51;8.63;;;6.15;;
66546;SDS011;53400;50.364;14.874;2023-06-14T01:30:20;10.07;;;6.07;;
66546;SDS011;53400;50.364;14.874;2023-06-14T01:32:49;9.90;;;6.75;;
66546;SDS011;53400;50.364;14.874;2023-06-14T01:35:16;8.32;;;6.40;;
66546;SDS011;53400;50.364;14.874;2023-06-14T01:37:42;9.40;;;6.18;;
66546;SDS011;53400;50.364;14.874;2023-06-14T01:40:11;9.27;;;6.05;;
66546;SDS011;53400;50.364;14.874;2023-06-14T01:42:40;10.45;;;6.47;;
66546;SDS011;53400;50.364;14.874;2023-06-14T01:45:08;9.65;;;7.03;;
66546;SDS011;53400;50.364;14.874;2023-06-14T01:47:37;10.45;;;6.97;;
66546;SDS011;53400;50.364;14.874;2023-06-14T01:50:04;10.43;;;6.95;;
66546;SDS011;53400;50.364;14.874;2023-06-14T01:52:31;10.32;;;7.38;;
66546;SDS011;53400;50.364;14.874;2023-06-14T01:54:58;10.10;;;7.05;;
66546;SDS011;53400;50.364;14.874;2023-06-14T01:57:29;13.07;;;7.53;;
66546;SDS011;53400;50.364;14.874;2023-06-14T01:59:55;9.80;;;7.38;;
66546;SDS011;53400;50.364;14.874;2023-06-14T02:02:22;11.88;;;7.70;;
66546;SDS011;53400;50.364;14.874;2023-06-14T02:04:48;10.50;;;7.13;;
66546;SDS011;53400;50.364;14.874;2023-06-14T02:07:15;9.48;;;6.68;;
66546;SDS011;53400;50.364;14.874;2023-06-14T02:09:41;10.05;;;7.35;;
66546;SDS011;53400;50.364;14.874;2023-06-14T02:12:08;9.65;;;7.22;;
66546;SDS011;53400;50.364;14.874;2023-06-14T02:14:36;10.82;;;7.25;;
66546;SDS011;53400;50.364;14.874;2023-06-14T02:17:04;10.93;;;7.55;;
66546;SDS011;53400;50.364;14.874;2023-06-14T02:19:31;10.27;;;7.53;;
66546;SDS011;53400;50.364;14.874;2023-06-14T02:21:58;9.73;;;7.38;;
66546;SDS011;53400;50.364;14.874;2023-06-14T02:24:24;11.20;;;7.85;;
66546;SDS011;53400;50.364;14.874;2023-06-14T02:26:50;11.15;;;7.25;;
66546;SDS011;53400;50.364;14.874;2023-06-14T02:29:16;10.57;;;7.70;;
66546;SDS011;53400;50.364;14.874;2023-06-14T02:31:44;11.77;;;7.85;;
66546;SDS011;53400;50.364;14.874;2023-06-14T02:34:12;13.75;;;8.20;;
66546;SDS011;53400;50.364;14.874;2023-06-14T02:36:38;10.32;;;7.75;;
66546;SDS011;53400;50.364;14.874;2023-06-14T02:39:07;11.20;;;8.10;;
66546;SDS011;53400;50.364;14.874;2023-06-14T02:41:34;11.00;;;7.88;;
66546;SDS011;53400;50.364;14.874;2023-06-14T02:44:00;11.52;;;7.72;;
66546;SDS011;53400;50.364;14.874;2023-06-14T02:46:27;11.15;;;7.95;;
66546;SDS011;53400;50.364;14.874;2023-06-14T02:48:55;10.07;;;7.55;;
66546;SDS011;53400;50.364;14.874;2023-06-14T02:51:21;12.55;;;8.27;;
66546;SDS011;53400;50.364;14.874;2023-06-14T02:53:48;12.13;;;7.50;;
66546;SDS011;53400;50.364;14.874;2023-06-14T02:56:18;11.38;;;7.80;;
66546;SDS011;53400;50.364;14.874;2023-06-14T02:58:44;12.45;;;7.68;;
66546;SDS011;53400;50.364;14.874;2023-06-14T03:01:14;10.93;;;7.72;;
66546;SDS011;53400;50.364;14.874;2023-06-14T03:03:55;12.07;;;7.40;;
66546;SDS011;53400;50.364;14.874;2023-06-14T03:06:22;10.55;;;7.40;;
66546;SDS011;53400;50.364;14.874;2023-06-14T03:08:50;11.35;;;7.55;;
66546;SDS011;53400;50.364;14.874;2023-06-14T03:11:17;10.57;;;7.90;;
66546;SDS011;53400;50.364;14.874;2023-06-14T03:13:45;11.18;;;8.07;;
66546;SDS011;53400;50.364;14.874;2023-06-14T03:16:12;10.77;;;7.57;;
66546;SDS011;53400;50.364;14.874;2023-06-14T03:18:39;10.93;;;8.13;;
66546;SDS011;53400;50.364;14.874;2023-06-14T03:21:07;11.30;;;7.97;;
66546;SDS011;53400;50.364;14.874;2023-06-14T03:23:34;11.45;;;7.93;;
66546;SDS011;53400;50.364;14.874;2023-06-14T03:26:00;11.45;;;7.50;;
66546;SDS011;53400;50.364;14.874;2023-06-14T03:28:27;12.18;;;7.80;;
66546;SDS011;53400;50.364;14.874;2023-06-14T03:30:53;12.95;;;8.80;;
66546;SDS011;53400;50.364;14.874;2023-06-14T03:33:19;10.77;;;8.30;;
66546;SDS011;53400;50.364;14.874;2023-06-14T03:35:47;11.65;;;7.78;;
66546;SDS011;53400;50.364;14.874;2023-06-14T03:38:15;12.65;;;7.60;;
66546;SDS011;53400;50.364;14.874;2023-06-14T03:40:42;11.45;;;7.45;;
66546;SDS011;53400;50.364;14.874;2023-06-14T03:43:07;11.98;;;7.20;;
66546;SDS011;53400;50.364;14.874;2023-06-14T03:45:34;10.15;;;7.07;;
66546;SDS011;53400;50.364;14.874;2023-06-14T03:48:00;9.85;;;6.68;;
66546;SDS011;53400;50.364;14.874;2023-06-14T03:50:28;10.15;;;6.70;;
66546;SDS011;53400;50.364;14.874;2023-06-14T03:52:54;9.77;;;7.15;;
66546;SDS011;53400;50.364;14.874;2023-06-14T03:55:23;9.43;;;6.85;;
66546;SDS011;53400;50.364;14.874;2023-06-14T03:57:51;10.57;;;6.95;;
66546;SDS011;53400;50.364;14.874;2023-06-14T04:00:17;10.65;;;7.00;;
66546;SDS011;53400;50.364;14.874;2023-06-14T04:02:43;9.82;;;6.30;;
66546;SDS011;53400;50.364;14.874;2023-06-14T04:05:11;9.38;;;7.05;;
66546;SDS011;53400;50.364;14.874;2023-06-14T04:07:39;10.63;;;7.15;;
66546;SDS011;53400;50.364;14.874;2023-06-14T04:10:10;12.02;;;8.30;;
66546;SDS011;53400;50.364;14.874;2023-06-14T04:12:38;11.43;;;9.82;;
66546;SDS011;53400;50.364;14.874;2023-06-14T04:15:05;11.35;;;7.82;;
66546;SDS011;53400;50.364;14.874;2023-06-14T04:17:34;8.88;;;7.10;;
66546;SDS011;53400;50.364;14.874;2023-06-14T04:20:01;10.25;;;7.10;;
66546;SDS011;53400;50.364;14.874;2023-06-14T04:22:29;9.98;;;6.88;;
66546;SDS011;53400;50.364;14.874;2023-06-14T04:24:56;9.27;;;6.80;;
66546;SDS011;53400;50.364;14.874;2023-06-14T04:27:22;10.35;;;6.72;;
66546;SDS011;53400;50.364;14.874;2023-06-14T04:29:52;9.88;;;7.15;;
66546;SDS011;53400;50.364;14.874;2023-06-14T04:32:22;9.65;;;6.80;;
66546;SDS011;53400;50.364;14.874;2023-06-14T04:34:51;12.48;;;7.85;;
66546;SDS011;53400;50.364;14.874;2023-06-14T04:37:21;11.73;;;7.85;;
66546;SDS011;53400;50.364;14.874;2023-06-14T04:39:55;10.88;;;7.50;;
66546;SDS011;53400;50.364;14.874;2023-06-14T04:42:22;10.95;;;7.88;;
66546;SDS011;53400;50.364;14.874;2023-06-14T04:44:51;14.60;;;9.02;;
66546;SDS011;53400;50.364;14.874;2023-06-14T04:47:21;14.50;;;8.40;;
66546;SDS011;53400;50.364;14.874;2023-06-14T04:49:47;16.65;;;9.15;;
66546;SDS011;53400;50.364;14.874;2023-06-14T04:52:13;23.98;;;13.05;;
66546;SDS011;53400;50.364;14.874;2023-06-14T04:54:40;24.77;;;12.90;;
66546;SDS011;53400;50.364;14.874;2023-06-14T04:57:07;12.88;;;8.10;;
66546;SDS011;53400;50.364;14.874;2023-06-14T04:59:34;8.20;;;6.63;;
66546;SDS011;53400;50.364;14.874;2023-06-14T05:02:03;9.77;;;6.07;;
66546;SDS011;53400;50.364;14.874;2023-06-14T05:04:31;9.77;;;6.20;;
66546;SDS011;53400;50.364;14.874;2023-06-14T05:06:57;9.52;;;6.13;;
66546;SDS011;53400;50.364;14.874;2023-06-14T05:09:23;8.77;;;5.43;;
66546;SDS011;53400;50.364;14.874;2023-06-14T05:11:49;7.90;;;5.40;;
66546;SDS011;53400;50.364;14.874;2023-06-14T05:14:16;9.00;;;6.18;;
66546;SDS011;53400;50.364;14.874;2023-06-14T05:16:44;9.40;;;6.03;;
66546;SDS011;53400;50.364;14.874;2023-06-14T05:19:13;11.23;;;6.53;;
66546;SDS011;53400;50.364;14.874;2023-06-14T05:21:39;11.98;;;6.50;;
66546;SDS011;53400;50.364;14.874;2023-06-14T05:24:06;8.85;;;6.22;;
66546;SDS011;53400;50.364;14.874;2023-06-14T05:26:33;9.98;;;6.22;;
66546;SDS011;53400;50.364;14.874;2023-06-14T05:29:00;8.35;;;6.32;;
66546;SDS011;53400;50.364;14.874;2023-06-14T05:31:26;9.15;;;5.63;;
66546;SDS011;53400;50.364;14.874;2023-06-14T05:33:53;8.85;;;6.22;;
66546;SDS011;53400;50.364;14.874;2023-06-14T05:36:21;8.85;;;5.80;;
66546;SDS011;53400;50.364;14.874;2023-06-14T05:38:48;9.20;;;5.72;;
66546;SDS011;53400;50.364;14.874;2023-06-14T05:41:16;10.40;;;5.40;;
66546;SDS011;53400;50.364;14.874;2023-06-14T05:43:43;8.80;;;6.22;;
66546;SDS011;53400;50.364;14.874;2023-06-14T05:46:09;8.20;;;5.25;;
66546;SDS011;53400;50.364;14.874;2023-06-14T05:48:36;8.45;;;5.80;;
66546;SDS011;53400;50.364;14.874;2023-06-14T05:51:01;8.85;;;5.82;;
66546;SDS011;53400;50.364;14.874;2023-06-14T05:53:30;8.02;;;5.80;;
66546;SDS011;53400;50.364;14.874;2023-06-14T05:55:56;8.15;;;5.82;;
66546;SDS011;53400;50.364;14.874;2023-06-14T05:58:22;7.60;;;5.32;;
66546;SDS011;53400;50.364;14.874;2023-06-14T06:00:47;8.35;;;5.05;;
66546;SDS011;53400;50.364;14.874;2023-06-14T06:03:14;8.23;;;5.32;;
66546;SDS011;53400;50.364;14.874;2023-06-14T06:05:41;8.65;;;4.95;;
66546;SDS011;53400;50.364;14.874;2023-06-14T06:08:07;7.45;;;5.22;;
66546;SDS011;53400;50.364;14.874;2023-06-14T06:10:34;8.60;;;4.68;;
66546;SDS011;53400;50.364;14.874;2023-06-14T06:13:01;8.63;;;5.00;;
66546;SDS011;53400;50.364;14.874;2023-06-14T06:15:27;9.25;;;5.88;;
66546;SDS011;53400;50.364;14.874;2023-06-14T06:17:53;8.68;;;5.78;;
66546;SDS011;53400;50.364;14.874;2023-06-14T06:20:20;8.15;;;5.18;;
66546;SDS011;53400;50.364;14.874;2023-06-14T06:22:47;8.57;;;5.97;;
66546;SDS011;53400;50.364;14.874;2023-06-14T06:25:13;9.88;;;5.70;;
66546;SDS011;53400;50.364;14.874;2023-06-14T06:27:42;8.80;;;5.63;;
66546;SDS011;53400;50.364;14.874;2023-06-14T06:30:08;8.52;;;5.55;;
66546;SDS011;53400;50.364;14.874;2023-06-14T06:32:35;8.43;;;5.55;;
66546;SDS011;53400;50.364;14.874;2023-06-14T06:35:01;7.75;;;5.28;;
66546;SDS011;53400;50.364;14.874;2023-06-14T06:37:28;8.48;;;5.30;;
66546;SDS011;53400;50.364;14.874;2023-06-14T06:39:54;7.95;;;5.20;;
66546;SDS011;53400;50.364;14.874;2023-06-14T06:42:20;6.65;;;4.50;;
66546;SDS011;53400;50.364;14.874;2023-06-14T06:44:48;8.63;;;6.03;;
66546;SDS011;53400;50.364;14.874;2023-06-14T06:47:14;7.45;;;4.97;;
66546;SDS011;53400;50.364;14.874;2023-06-14T06:49:41;7.32;;;4.75;;
66546;SDS011;53400;50.364;14.874;2023-06-14T06:52:07;8.13;;;4.82;;
66546;SDS011;53400;50.364;14.874;2023-06-14T06:54:34;10.40;;;4.82;;
66546;SDS011;53400;50.364;14.874;2023-06-14T06:57:00;6.80;;;4.32;;
66546;SDS011;53400;50.364;14.874;2023-06-14T06:59:30;7.53;;;4.93;;
66546;SDS011;53400;50.364;14.874;2023-06-14T07:01:58;7.40;;;5.00;;
66546;SDS011;53400;50.364;14.874;2023-06-14T07:04:24;7.90;;;4.57;;
66546;SDS011;53400;50.364;14.874;2023-06-14T07:06:50;6.95;;;4.32;;
66546;SDS011;53400;50.364;14.874;2023-06-14T07:09:16;6.40;;;4.30;;
66546;SDS011;53400;50.364;14.874;2023-06-14T07:11:43;7.78;;;4.50;;
66546;SDS011;53400;50.364;14.874;2023-06-14T07:14:11;7.68;;;4.55;;
66546;SDS011;53400;50.364;14.874;2023-06-14T07:16:37;7.22;;;4.90;;
66546;SDS011;53400;50.364;14.874;2023-06-14T07:19:04;6.72;;;4.28;;
66546;SDS011;53400;50.364;14.874;2023-06-14T07:21:31;6.50;;;4.38;;
66546;SDS011;53400;50.364;14.874;2023-06-14T07:23:56;7.93;;;4.50;;
66546;SDS011;53400;50.364;14.874;2023-06-14T07:26:23;6.68;;;4.43;;
66546;SDS011;53400;50.364;14.874;2023-06-14T07:28:49;7.35;;;4.40;;
66546;SDS011;53400;50.364;14.874;2023-06-14T07:31:15;7.78;;;4.78;;
66546;SDS011;53400;50.364;14.874;2023-06-14T07:33:42;8.10;;;4.50;;
66546;SDS011;53400;50.364;14.874;2023-06-14T07:36:12;7.78;;;4.90;;
66546;SDS011;53400;50.364;14.874;2023-06-14T07:38:38;7.80;;;4.88;;
66546;SDS011;53400;50.364;14.874;2023-06-14T07:41:06;8.68;;;5.13;;
66546;SDS011;53400;50.364;14.874;2023-06-14T07:43:33;6.70;;;4.45;;
66546;SDS011;53400;50.364;14.874;2023-06-14T07:46:02;5.95;;;3.95;;
66546;SDS011;53400;50.364;14.874;2023-06-14T07:48:29;7.10;;;4.53;;
66546;SDS011;53400;50.364;14.874;2023-06-14T07:50:55;6.53;;;4.25;;
66546;SDS011;53400;50.364;14.874;2023-06-14T07:53:24;6.55;;;4.20;;
66546;SDS011;53400;50.364;14.874;2023-06-14T07:55:51;6.90;;;4.60;;
66546;SDS011;53400;50.364;14.874;2023-06-14T07:58:18;7.22;;;4.13;;
66546;SDS011;53400;50.364;14.874;2023-06-14T08:00:44;6.05;;;4.10;;
66546;SDS011;53400;50.364;14.874;2023-06-14T08:03:11;6.78;;;3.92;;
66546;SDS011;53400;50.364;14.874;2023-06-14T08:05:38;5.90;;;4.00;;
66546;SDS011;53400;50.364;14.874;2023-06-14T08:08:04;7.78;;;4.63;;
66546;SDS011;53400;50.364;14.874;2023-06-14T08:10:32;8.15;;;4.65;;
66546;SDS011;53400;50.364;14.874;2023-06-14T08:12:58;7.20;;;4.47;;
66546;SDS011;53400;50.364;14.874;2023-06-14T08:15:25;8.40;;;4.30;;
66546;SDS011;53400;50.364;14.874;2023-06-14T08:17:51;6.82;;;4.40;;
66546;SDS011;53400;50.364;14.874;2023-06-14T08:20:18;7.43;;;4.60;;
66546;SDS011;53400;50.364;14.874;2023-06-14T08:22:44;6.57;;;4.63;;
66546;SDS011;53400;50.364;14.874;2023-06-14T08:25:12;7.25;;;4.10;;
66546;SDS011;53400;50.364;14.874;2023-06-14T08:27:40;6.65;;;4.15;;
66546;SDS011;53400;50.364;14.874;2023-06-14T08:30:08;6.65;;;4.40;;
66546;SDS011;53400;50.364;14.874;2023-06-14T08:32:35;7.05;;;4.38;;
66546;SDS011;53400;50.364;14.874;2023-06-14T08:35:02;9.10;;;5.15;;
66546;SDS011;53400;50.364;14.874;2023-06-14T08:37:30;7.97;;;5.10;;
66546;SDS011;53400;50.364;14.874;2023-06-14T08:39:57;6.30;;;4.45;;
66546;SDS011;53400;50.364;14.874;2023-06-14T08:42:23;7.13;;;4.40;;
66546;SDS011;53400;50.364;14.874;2023-06-14T08:44:52;8.52;;;4.80;;
66546;SDS011;53400;50.364;14.874;2023-06-14T08:47:18;8.73;;;4.70;;
66546;SDS011;53400;50.364;14.874;2023-06-14T08:49:46;7.93;;;4.38;;
66546;SDS011;53400;50.364;14.874;2023-06-14T08:52:13;5.97;;;4.70;;
66546;SDS011;53400;50.364;14.874;2023-06-14T08:54:45;7.25;;;4.45;;
66546;SDS011;53400;50.364;14.874;2023-06-14T08:57:14;6.65;;;4.70;;
66546;SDS011;53400;50.364;14.874;2023-06-14T08:59:42;8.25;;;5.30;;
66546;SDS011;53400;50.364;14.874;2023-06-14T09:02:14;7.35;;;4.70;;
66546;SDS011;53400;50.364;14.874;2023-06-14T09:04:43;7.82;;;4.60;;
66546;SDS011;53400;50.364;14.874;2023-06-14T09:07:10;7.78;;;4.30;;
66546;SDS011;53400;50.364;14.874;2023-06-14T09:09:38;5.93;;;4.10;;
66546;SDS011;53400;50.364;14.874;2023-06-14T09:12:07;6.40;;;4.55;;
66546;SDS011;53400;50.364;14.874;2023-06-14T09:14:35;7.13;;;4.53;;
66546;SDS011;53400;50.364;14.874;2023-06-14T09:17:04;7.22;;;4.28;;
66546;SDS011;53400;50.364;14.874;2023-06-14T09:19:33;7.95;;;4.35;;
66546;SDS011;53400;50.364;14.874;2023-06-14T09:22:00;6.65;;;4.05;;
66546;SDS011;53400;50.364;14.874;2023-06-14T09:24:26;6.65;;;3.70;;
66546;SDS011;53400;50.364;14.874;2023-06-14T09:26:54;5.75;;;3.35;;
66546;SDS011;53400;50.364;14.874;2023-06-14T09:29:21;6.78;;;4.00;;
66546;SDS011;53400;50.364;14.874;2023-06-14T09:31:47;6.03;;;3.90;;
66546;SDS011;53400;50.364;14.874;2023-06-14T09:34:13;6.82;;;3.58;;
66546;SDS011;53400;50.364;14.874;2023-06-14T09:36:45;7.35;;;4.07;;
66546;SDS011;53400;50.364;14.874;2023-06-14T09:39:11;6.30;;;4.40;;
66546;SDS011;53400;50.364;14.874;2023-06-14T09:41:44;6.95;;;4.13;;
66546;SDS011;53400;50.364;14.874;2023-06-14T09:44:10;7.70;;;4.90;;
66546;SDS011;53400;50.364;14.874;2023-06-14T09:46:38;6.28;;;4.57;;
66546;SDS011;53400;50.364;14.874;2023-06-14T09:49:04;6.32;;;4.65;;
66546;SDS011;53400;50.364;14.874;2023-06-14T09:51:31;8.27;;;4.88;;
66546;SDS011;53400;50.364;14.874;2023-06-14T09:54:00;7.97;;;4.57;;
66546;SDS011;53400;50.364;14.874;2023-06-14T09:56:31;6.28;;;4.75;;
66546;SDS011;53400;50.364;14.874;2023-06-14T09:59:00;6.68;;;4.75;;
66546;SDS011;53400;50.364;14.874;2023-06-14T10:01:31;7.13;;;4.40;;
66546;SDS011;53400;50.364;14.874;2023-06-14T10:03:59;6.65;;;4.10;;
66546;SDS011;53400;50.364;14.874;2023-06-14T10:06:29;6.90;;;4.60;;
66546;SDS011;53400;50.364;14.874;2023-06-14T10:08:56;5.72;;;4.10;;
66546;SDS011;53400;50.364;14.874;2023-06-14T10:11:27;6.65;;;4.45;;
66546;SDS011;53400;50.364;14.874;2023-06-14T10:13:53;7.75;;;4.68;;
66546;SDS011;53400;50.364;14.874;2023-06-14T10:16:23;8.10;;;4.68;;
66546;SDS011;53400;50.364;14.874;2023-06-14T10:18:53;6.70;;;4.50;;
66546;SDS011;53400;50.364;14.874;2023-06-14T10:21:32;6.07;;;4.57;;
66546;SDS011;53400;50.364;14.874;2023-06-14T10:24:03;6.60;;;4.15;;
66546;SDS011;53400;50.364;14.874;2023-06-14T10:26:34;6.38;;;4.18;;
66546;SDS011;53400;50.364;14.874;2023-06-14T10:29:00;6.60;;;4.55;;
66546;SDS011;53400;50.364;14.874;2023-06-14T10:31:40;6.25;;;4.68;;
66546;SDS011;53400;50.364;14.874;2023-06-14T10:34:10;6.55;;;4.20;;
66546;SDS011;53400;50.364;14.874;2023-06-14T10:36:38;8.15;;;4.40;;
66546;SDS011;53400;50.364;14.874;2023-06-14T10:39:07;8.05;;;5.07;;
66546;SDS011;53400;50.364;14.874;2023-06-14T10:41:38;6.75;;;4.40;;
66546;SDS011;53400;50.364;14.874;2023-06-14T10:47:06;6.60;;;4.35;;
66546;SDS011;53400;50.364;14.874;2023-06-14T10:49:38;6.30;;;4.20;;
66546;SDS011;53400;50.364;14.874;2023-06-14T10:52:08;7.32;;;4.80;;
66546;SDS011;53400;50.364;14.874;2023-06-14T10:57:33;6.82;;;4.45;;
66546;SDS011;53400;50.364;14.874;2023-06-14T11:00:02;6.78;;;4.28;;
66546;SDS011;53400;50.364;14.874;2023-06-14T11:05:49;7.68;;;4.68;;
66546;SDS011;53400;50.364;14.874;2023-06-14T11:11:29;6.35;;;4.65;;
66546;SDS011;53400;50.364;14.874;2023-06-14T11:14:00;7.22;;;4.60;;
66546;SDS011;53400;50.364;14.874;2023-06-14T11:16:27;6.70;;;4.38;;
66546;SDS011;53400;50.364;14.874;2023-06-14T11:18:54;7.15;;;4.32;;
66546;SDS011;53400;50.364;14.874;2023-06-14T11:21:21;6.70;;;4.05;;
66546;SDS011;53400;50.364;14.874;2023-06-14T11:23:50;6.78;;;4.00;;
66546;SDS011;53400;50.364;14.874;2023-06-14T11:26:23;6.72;;;3.92;;
66546;SDS011;53400;50.364;14.874;2023-06-14T11:28:54;6.35;;;3.97;;
66546;SDS011;53400;50.364;14.874;2023-06-14T11:31:23;7.28;;;4.05;;
66546;SDS011;53400;50.364;14.874;2023-06-14T11:33:49;7.07;;;3.88;;
66546;SDS011;53400;50.364;14.874;2023-06-14T11:36:16;7.20;;;3.97;;
66546;SDS011;53400;50.364;14.874;2023-06-14T11:38:42;7.20;;;3.92;;
66546;SDS011;53400;50.364;14.874;2023-06-14T11:41:09;8.70;;;3.97;;
66546;SDS011;53400;50.364;14.874;2023-06-14T11:43:35;7.03;;;3.78;;
66546;SDS011;53400;50.364;14.874;2023-06-14T11:46:02;6.43;;;3.70;;
66546;SDS011;53400;50.364;14.874;2023-06-14T11:48:40;6.63;;;3.92;;
66546;SDS011;53400;50.364;14.874;2023-06-14T11:51:07;7.25;;;4.00;;
66546;SDS011;53400;50.364;14.874;2023-06-14T11:53:33;6.40;;;3.53;;
66546;SDS011;53400;50.364;14.874;2023-06-14T11:56:00;6.50;;;3.70;;
66546;SDS011;53400;50.364;14.874;2023-06-14T11:58:28;6.50;;;4.00;;
66546;SDS011;53400;50.364;14.874;2023-06-14T12:00:55;7.47;;;3.80;;
66546;SDS011;53400;50.364;14.874;2023-06-14T12:03:25;6.78;;;3.67;;
66546;SDS011;53400;50.364;14.874;2023-06-14T12:06:03;6.28;;;3.30;;
66546;SDS011;53400;50.364;14.874;2023-06-14T12:08:33;6.80;;;3.65;;
66546;SDS011;53400;50.364;14.874;2023-06-14T12:11:06;6.63;;;3.45;;
66546;SDS011;53400;50.364;14.874;2023-06-14T12:13:37;7.47;;;3.70;;
66546;SDS011;53400;50.364;14.874;2023-06-14T12:16:06;6.95;;;3.67;;
66546;SDS011;53400;50.364;14.874;2023-06-14T12:18:33;7.10;;;3.65;;
66546;SDS011;53400;50.364;14.874;2023-06-14T12:21:00;5.75;;;3.20;;
66546;SDS011;53400;50.364;14.874;2023-06-14T12:23:43;6.43;;;3.35;;
66546;SDS011;53400;50.364;14.874;2023-06-14T12:26:12;6.75;;;3.38;;
66546;SDS011;53400;50.364;14.874;2023-06-14T12:28:39;6.07;;;3.63;;
66546;SDS011;53400;50.364;14.874;2023-06-14T12:31:07;6.13;;;3.47;;
66546;SDS011;53400;50.364;14.874;2023-06-14T12:33:34;6.68;;;3.60;;
66546;SDS011;53400;50.364;14.874;2023-06-14T12:36:00;6.88;;;3.38;;
66546;SDS011;53400;50.364;14.874;2023-06-14T12:38:29;7.10;;;4.18;;
66546;SDS011;53400;50.364;14.874;2023-06-14T12:40:56;6.30;;;3.75;;
66546;SDS011;53400;50.364;14.874;2023-06-14T12:43:24;5.68;;;3.20;;
66546;SDS011;53400;50.364;14.874;2023-06-14T12:45:50;6.10;;;3.42;;
66546;SDS011;53400;50.364;14.874;2023-06-14T12:48:16;6.70;;;3.47;;
66546;SDS011;53400;50.364;14.874;2023-06-14T12:50:42;6.40;;;3.58;;
66546;SDS011;53400;50.364;14.874;2023-06-14T12:53:08;6.18;;;3.22;;
66546;SDS011;53400;50.364;14.874;2023-06-14T12:55:34;6.30;;;3.42;;
66546;SDS011;53400;50.364;14.874;2023-06-14T12:58:02;6.18;;;3.38;;
66546;SDS011;53400;50.364;14.874;2023-06-14T13:00:28;7.00;;;3.50;;
66546;SDS011;53400;50.364;14.874;2023-06-14T13:02:56;5.80;;;3.30;;
66546;SDS011;53400;50.364;14.874;2023-06-14T13:05:22;6.22;;;3.35;;
66546;SDS011;53400;50.364;14.874;2023-06-14T13:07:49;6.95;;;3.33;;
66546;SDS011;53400;50.364;14.874;2023-06-14T13:10:15;6.07;;;3.40;;
66546;SDS011;53400;50.364;14.874;2023-06-14T13:12:41;6.32;;;3.40;;
66546;SDS011;53400;50.364;14.874;2023-06-14T13:15:11;6.55;;;3.30;;
66546;SDS011;53400;50.364;14.874;2023-06-14T13:17:37;6.13;;;3.50;;
66546;SDS011;53400;50.364;14.874;2023-06-14T13:20:04;5.75;;;3.25;;
66546;SDS011;53400;50.364;14.874;2023-06-14T13:22:32;6.05;;;3.45;;
66546;SDS011;53400;50.364;14.874;2023-06-14T13:24:58;7.35;;;3.95;;
66546;SDS011;53400;50.364;14.874;2023-06-14T13:27:25;7.20;;;3.78;;
66546;SDS011;53400;50.364;14.874;2023-06-14T13:29:51;5.80;;;3.42;;
66546;SDS011;53400;50.364;14.874;2023-06-14T13:32:20;6.35;;;3.53;;
66546;SDS011;53400;50.364;14.874;2023-06-14T13:34:46;6.35;;;3.45;;
66546;SDS011;53400;50.364;14.874;2023-06-14T13:37:12;5.93;;;3.40;;
66546;SDS011;53400;50.364;14.874;2023-06-14T13:39:38;6.03;;;3.60;;
66546;SDS011;53400;50.364;14.874;2023-06-14T13:42:06;7.40;;;3.92;;
66546;SDS011;53400;50.364;14.874;2023-06-14T13:44:33;5.97;;;3.45;;
66546;SDS011;53400;50.364;14.874;2023-06-14T13:47:00;8.57;;;4.40;;
66546;SDS011;53400;50.364;14.874;2023-06-14T13:49:28;6.57;;;4.25;;
66546;SDS011;53400;50.364;14.874;2023-06-14T13:51:54;6.78;;;3.65;;
66546;SDS011;53400;50.364;14.874;2023-06-14T13:54:20;6.45;;;4.13;;
66546;SDS011;53400;50.364;14.874;2023-06-14T13:56:47;6.45;;;4.00;;
66546;SDS011;53400;50.364;14.874;2023-06-14T13:59:13;7.63;;;4.60;;
66546;SDS011;53400;50.364;14.874;2023-06-14T14:01:40;6.38;;;4.03;;
66546;SDS011;53400;50.364;14.874;2023-06-14T14:04:05;8.63;;;4.35;;
66546;SDS011;53400;50.364;14.874;2023-06-14T14:06:33;7.10;;;4.38;;
66546;SDS011;53400;50.364;14.874;2023-06-14T14:08:59;7.40;;;4.70;;
66546;SDS011;53400;50.364;14.874;2023-06-14T14:11:26;7.38;;;4.53;;
66546;SDS011;53400;50.364;14.874;2023-06-14T14:13:53;7.25;;;4.68;;
66546;SDS011;53400;50.364;14.874;2023-06-14T14:16:20;7.03;;;4.63;;
66546;SDS011;53400;50.364;14.874;2023-06-14T14:18:46;7.35;;;4.55;;
66546;SDS011;53400;50.364;14.874;2023-06-14T14:21:13;7.28;;;4.50;;
66546;SDS011;53400;50.364;14.874;2023-06-14T14:23:41;8.70;;;4.75;;
66546;SDS011;53400;50.364;14.874;2023-06-14T14:26:07;8.07;;;5.15;;
66546;SDS011;53400;50.364;14.874;2023-06-14T14:28:34;8.02;;;4.95;;
66546;SDS011;53400;50.364;14.874;2023-06-14T14:31:01;8.45;;;5.07;;
66546;SDS011;53400;50.364;14.874;2023-06-14T14:33:27;7.10;;;4.60;;
66546;SDS011;53400;50.364;14.874;2023-06-14T14:35:53;8.02;;;5.72;;
66546;SDS011;53400;50.364;14.874;2023-06-14T14:38:19;7.78;;;4.95;;
66546;SDS011;53400;50.364;14.874;2023-06-14T14:40:49;9.63;;;5.57;;
66546;SDS011;53400;50.364;14.874;2023-06-14T14:43:15;8.55;;;5.47;;
66546;SDS011;53400;50.364;14.874;2023-06-14T14:45:41;7.95;;;5.40;;